| time (UTC) | temp F | wind direction | speed knots | gust knots | rain 1hr in | rain 24hr in | rain mn in | humidity % | barometer mb |
| 20260503004529 | 56 | 222 | 4.3 | 7.8 | 0.00 | 0.00 | 0.00 | 37 | 1018.0 |
| 20260503003055 | 58 | 232 | 6.1 | 8.7 | 0.00 | 0.00 | 0.00 | 36 | 1018.1 |
| 20260503001529 | 58 | 253 | 6.1 | 12.2 | 0.00 | 0.00 | 0.00 | 35 | 1018.2 |
| 20260503000042 | 59 | 243 | 7.0 | 12.2 | 0.00 | 0.00 | 0.00 | 34 | 1018.2 |
| 20260502234556 | 59 | 244 | 7.8 | 11.3 | 0.00 | 0.00 | 0.00 | 33 | 1018.4 |
| 20260502233007 | 59 | 267 | 8.7 | 12.2 | 0.00 | 0.00 | 0.00 | 32 | 1018.5 |
| 20260502231513 | 60 | 232 | 7.8 | 12.2 | 0.00 | 0.00 | 0.00 | 33 | 1018.6 |
| 20260502230029 | 60 | 255 | 6.1 | 12.2 | 0.00 | 0.00 | 0.00 | 32 | 1018.9 |
| 20260502224532 | 60 | 315 | 8.7 | 14.8 | 0.00 | 0.00 | 0.00 | 29 | 1018.9 |
| 20260502223059 | 59 | 294 | 7.8 | 13.9 | 0.00 | 0.00 | 0.00 | 30 | 1019.1 |
| 20260502221537 | 60 | 236 | 13.0 | 18.2 | 0.00 | 0.00 | 0.00 | 30 | 1019.3 |
| 20260502220058 | 59 | 275 | 8.7 | 14.8 | 0.00 | 0.00 | 0.00 | 31 | 1019.5 |
| 20260502214533 | 60 | 309 | 7.8 | 15.6 | 0.00 | 0.00 | 0.00 | 31 | 1019.6 |
| 20260502213006 | 59 | 230 | 7.0 | 14.8 | 0.00 | 0.00 | 0.00 | 32 | 1019.7 |
| 20260502211527 | 59 | 275 | 7.0 | 12.2 | 0.00 | 0.00 | 0.00 | 31 | 1019.8 |
| 20260502210115 | 59 | 259 | 7.8 | 14.8 | 0.00 | 0.00 | 0.00 | 31 | 1019.9 |
| 20260502204518 | 59 | 325 | 6.1 | 13.9 | 0.00 | 0.00 | 0.00 | 31 | 1020.0 |
| 20260502203040 | 58 | 245 | 1.7 | 12.2 | 0.00 | 0.00 | 0.00 | 32 | 1020.3 |
| 20260502201557 | 58 | 217 | 7.0 | 13.0 | 0.00 | 0.00 | 0.00 | 31 | 1020.5 |
| 20260502201503 | 58 | 221 | 7.0 | 13.0 | 0.00 | 0.00 | 0.00 | 31 | 1020.6 |
| 20260502200009 | 58 | 306 | 6.1 | 13.0 | 0.00 | 0.00 | 0.00 | 31 | 1020.7 |
| 20260502194520 | 57 | 273 | 4.3 | 11.3 | 0.00 | 0.00 | 0.00 | 32 | 1020.9 |
| 20260502193026 | 57 | 243 | 9.6 | 14.8 | 0.00 | 0.00 | 0.00 | 33 | 1021.2 |
| 20260502191550 | 57 | 283 | 6.1 | 14.8 | 0.00 | 0.00 | 0.00 | 32 | 1021.5 |
| 20260502190057 | 57 | 246 | 1.7 | 8.7 | 0.00 | 0.00 | 0.00 | 35 | 1021.6 |
| 20260502184518 | 56 | 271 | 4.3 | 13.0 | 0.00 | 0.00 | 0.00 | 34 | 1021.8 |
| 20260502183056 | 56 | 255 | 4.3 | 11.3 | 0.00 | 0.00 | 0.00 | 34 | 1021.9 |
| 20260502181518 | 56 | 269 | 6.1 | 13.0 | 0.00 | 0.00 | 0.00 | 34 | 1022.1 |
| 20260502163053 | 53 | 256 | 7.8 | 13.0 | 0.00 | 0.00 | 0.00 | 39 | 1023.1 |
| 20260502161623 | 53 | 258 | 5.2 | 11.3 | 0.00 | 0.00 | 0.00 | 39 | 1023.3 |
| 20260502151541 | 50 | 269 | 7.0 | 13.0 | 0.00 | 0.00 | 0.00 | 49 | 1023.7 |
| 20260502123031 | 37 | 283 | 0.9 | 2.6 | 0.00 | 0.00 | 0.00 | 84 | 1023.9 |
| 20260502121556 | 36 | 76 | 0.0 | 1.7 | 0.00 | 0.00 | 0.00 | 87 | 1023.7 |
| 20260502114541 | 32 | 86 | 0.0 | 0.0 | 0.00 | 0.00 | 0.00 | 90 | 1023.6 |
| 20260502113005 | 29 | 86 | 0.0 | 0.0 | 0.00 | 0.00 | 0.00 | 89 | 1023.5 |
| 20260502111537 | 28 | 86 | 0.0 | 0.0 | 0.00 | 0.00 | 0.00 | 87 | 1023.3 |
| 20260502110004 | 28 | 86 | 0.0 | 0.0 | 0.00 | 0.00 | 0.00 | 87 | 1023.1 |
| 20260502104531 | 29 | 86 | 0.0 | 0.0 | 0.00 | 0.00 | 0.00 | 86 | 1023.1 |
| 20260502103101 | 29 | 86 | 0.0 | 0.0 | 0.00 | 0.00 | 0.00 | 87 | 1023.1 |
| 20260502101542 | 29 | 86 | 0.0 | 0.0 | 0.00 | 0.00 | 0.00 | 85 | 1023.0 |
| 20260502091504 | 31 | 86 | 0.0 | 0.0 | 0.00 | 0.00 | 0.00 | 81 | 1022.8 |
| 20260502071511 | 35 | 78 | 0.0 | 0.9 | 0.00 | 0.00 | 0.00 | 70 | 1023.1 |
| 20260502070037 | 36 | 78 | 1.7 | 3.5 | 0.00 | 0.00 | 0.00 | 68 | 1023.1 |
| 20260502064556 | 37 | 79 | 2.6 | 4.3 | 0.00 | 0.00 | 0.00 | 68 | 1023.1 |
| 20260502063028 | 38 | 55 | 2.6 | 3.5 | 0.00 | 0.00 | 0.00 | 65 | 1023.1 |
| 20260502061544 | 39 | 46 | 0.9 | 3.5 | 0.00 | 0.00 | 0.00 | 62 | 1023.2 |
| 20260502060016 | 39 | 40 | 0.9 | 3.5 | 0.00 | 0.00 | 0.00 | 62 | 1023.1 |
| 20260502054542 | 39 | 34 | 2.6 | 3.5 | 0.00 | 0.00 | 0.00 | 61 | 1023.0 |
| 20260502053129 | 40 | 31 | 1.7 | 4.3 | 0.00 | 0.00 | 0.00 | 60 | 1023.0 |
| 20260502053002 | 40 | 31 | 1.7 | 4.3 | 0.00 | 0.00 | 0.00 | 60 | 1022.9 |
| 20260502051530 | 41 | 25 | 1.7 | 3.5 | 0.00 | 0.00 | 0.00 | 58 | 1022.9 |
| 20260502050052 | 41 | 19 | 2.6 | 4.3 | 0.00 | 0.00 | 0.00 | 58 | 1022.8 |
| 20260502044519 | 41 | 18 | 2.6 | 4.3 | 0.00 | 0.00 | 0.00 | 58 | 1022.7 |
| 20260502043043 | 41 | 24 | 2.6 | 4.3 | 0.00 | 0.00 | 0.00 | 57 | 1022.7 |
| 20260502041511 | 41 | 30 | 0.9 | 2.6 | 0.00 | 0.00 | 0.00 | 59 | 1022.5 |
| 20260502040043 | 42 | 30 | 0.9 | 2.6 | 0.00 | 0.00 | 0.00 | 57 | 1022.3 |
| 20260502034508 | 42 | 30 | 1.7 | 3.5 | 0.00 | 0.00 | 0.00 | 57 | 1022.4 |
| 20260502033027 | 43 | 30 | 1.7 | 3.5 | 0.00 | 0.00 | 0.00 | 56 | 1022.2 |
| 20260502031557 | 44 | 30 | 1.7 | 3.5 | 0.00 | 0.00 | 0.00 | 54 | 1022.0 |
| 20260502030025 | 44 | 34 | 1.7 | 5.2 | 0.00 | 0.00 | 0.00 | 53 | 1022.0 |
| 20260502024557 | 45 | 26 | 1.7 | 4.3 | 0.00 | 0.00 | 0.00 | 52 | 1021.9 |
| 20260502023024 | 46 | 9 | 0.9 | 3.5 | 0.00 | 0.00 | 0.00 | 51 | 1021.6 |
| 20260502021539 | 47 | 29 | 1.7 | 4.3 | 0.00 | 0.00 | 0.00 | 48 | 1021.4 |
| 20260502020007 | 47 | 13 | 1.7 | 5.2 | 0.00 | 0.00 | 0.00 | 46 | 1021.3 |
| 20260502014533 | 48 | 18 | 2.6 | 5.2 | 0.00 | 0.00 | 0.00 | 46 | 1021.1 |
| 20260502013002 | 48 | 13 | 1.7 | 5.2 | 0.00 | 0.00 | 0.00 | 46 | 1020.9 |
| 20260502011525 | 49 | 19 | 3.5 | 7.0 | 0.00 | 0.00 | 0.00 | 44 | 1020.7 |